PWSweather.com
Personal Weather Stations
Station Observations
COONRAPIDS
Minneapolis, MN 55433

Minneapolis, MN 55433

Lat: 45.187721, Lon: -93.36828

Elevation: 898

Station Type: Davis Vantage Pro 2

High Low Average
Temperature 71.8°F22.1°C 67.4°F19.7°C 70.0°F21.1°C
Dew Point 67.7°F19.8°C 63.7°F17.6°C 66.1°F18.9°C
Winds 1.2 mph 1.9 kmh Calm Calm Calm SWCalm SW
Wind Gusts 4.6 mph7.4 kmh -- --
Humidity 90% 85% 88%
Pressure 29.95 in1014.2 mb 29.85 in1010.8 mb -
Precipitation 0.32 in8.1 mm - -
Hour Temp Dew Point Humidity Winds Wind Gusts Pressure Precip Precip Rate Daily Precip Total
12:00 AM 70.3°F21.3°C 63.9°F17.7°C 80% Calm Calm -- 29.94 in1013.9 mb - 0.01 in0.3 mm 0.01 in0.3 mm
12:10 AM 69.9°F21.1°C 63.8°F17.7°C 81% Calm Calm -- 29.96 in1014.6 mb - 0.01 in0.3 mm 0.02 in0.5 mm
12:20 AM 69.6°F20.9°C 63.9°F17.7°C 82% Calm Calm -- 29.96 in1014.6 mb - 0.01 in0.3 mm 0.03 in0.8 mm
12:30 AM 69.3°F20.7°C 64.3°F17.9°C 84% Calm Calm -- 29.98 in1015.2 mb - 0.02 in0.5 mm 0.01 in0.3 mm
12:40 AM 69.2°F20.7°C 64.1°F17.8°C 84% Calm Calm -- 29.98 in1015.2 mb - 0.01 in0.3 mm 0.01 in0.3 mm
12:50 AM 69.0°F20.6°C 64.0°F17.8°C 84% Calm Calm -- 29.97 in1014.9 mb - 0.02 in0.5 mm 0.02 in0.5 mm
01:00 AM 68.7°F20.4°C 64.0°F17.8°C 85% Calm Calm -- 29.95 in1014.2 mb - 0.03 in0.8 mm 0.03 in0.8 mm
01:10 AM 68.5°F20.3°C 64.1°F17.8°C 86% Calm Calm -- 29.93 in1013.5 mb - 0.04 in1.0 mm 0.04 in1.0 mm
01:20 AM 68.3°F20.2°C 64.3°F17.9°C 87% Calm Calm -- 29.90 in1012.5 mb - 0.04 in1.0 mm 0.04 in1.0 mm
01:30 AM 68.1°F20.1°C 64.4°F18.0°C 88% 1.2 mph SE1.9 kmh SE 4.6 mph7.4 kmh 29.87 in1011.5 mb - 0.04 in1.0 mm 0.05 in1.3 mm
01:40 AM 67.6°F19.8°C 64.0°F17.8°C 88% Calm Calm -- 29.86 in1011.2 mb - 0.05 in1.3 mm 0.06 in1.5 mm
01:50 AM 67.4°F19.7°C 63.7°F17.6°C 88% Calm Calm 1.2 mph1.9 kmh 29.89 in1012.2 mb - 0.04 in1.0 mm 0.06 in1.5 mm
02:00 AM 67.4°F19.7°C 63.7°F17.6°C 88% Calm Calm -- 29.90 in1012.5 mb - 0.03 in0.8 mm 0.06 in1.5 mm
02:10 AM 67.6°F19.8°C 63.9°F17.7°C 88% Calm Calm 1.2 mph1.9 kmh 29.90 in1012.5 mb - 0.03 in0.8 mm 0.07 in1.8 mm
02:20 AM 67.8°F19.9°C 64.4°F18.0°C 89% Calm Calm -- 29.92 in1013.2 mb - 0.03 in0.8 mm 0.07 in1.8 mm
02:30 AM 67.9°F19.9°C 64.2°F17.9°C 88% Calm Calm -- 29.92 in1013.2 mb - 0.03 in0.8 mm 0.08 in2.0 mm
02:40 AM 67.9°F19.9°C 64.2°F17.9°C 88% Calm Calm -- 29.91 in1012.9 mb - 0.02 in0.5 mm 0.08 in2.0 mm
02:50 AM 67.9°F19.9°C 64.5°F18.1°C 89% Calm Calm -- 29.89 in1012.2 mb - 0.02 in0.5 mm 0.08 in2.0 mm
03:00 AM 67.9°F19.9°C 64.5°F18.1°C 89% Calm Calm -- 29.90 in1012.5 mb - 0.02 in0.5 mm 0.08 in2.0 mm
07:10 AM 68.5°F20.3°C 64.8°F18.2°C 88% Calm Calm -- 29.92 in1013.2 mb - 0.02 in0.5 mm 0.09 in2.3 mm
07:20 AM 68.4°F20.2°C 64.7°F18.2°C 88% Calm Calm -- 29.91 in1012.9 mb - 0.02 in0.5 mm 0.09 in2.3 mm
07:30 AM 68.4°F20.2°C 64.7°F18.2°C 88% Calm Calm -- 29.90 in1012.5 mb - 0.01 in0.3 mm 0.09 in2.3 mm
07:40 AM 68.4°F20.2°C 64.7°F18.2°C 88% Calm Calm -- 29.88 in1011.9 mb - 0.01 in0.3 mm 0.09 in2.3 mm
07:50 AM 68.4°F20.2°C 64.7°F18.2°C 88% 1.2 mph W1.9 kmh W 3.5 mph5.6 kmh 29.89 in1012.2 mb - 0.01 in0.3 mm 0.09 in2.3 mm
08:00 AM 68.4°F20.2°C 65.1°F18.4°C 89% Calm Calm -- 29.91 in1012.9 mb - 0.01 in0.3 mm 0.09 in2.3 mm
08:10 AM 68.4°F20.2°C 65.1°F18.4°C 89% Calm Calm -- 29.91 in1012.9 mb - 0.00 in0.0 mm 0.09 in2.3 mm
08:20 AM 68.5°F20.3°C 65.1°F18.4°C 89% Calm Calm -- 29.93 in1013.5 mb - 0.00 in0.0 mm 0.09 in2.3 mm
08:30 AM 68.6°F20.3°C 65.2°F18.4°C 89% Calm Calm -- 29.92 in1013.2 mb - 0.00 in0.0 mm 0.09 in2.3 mm
08:40 AM 68.7°F20.4°C 65.3°F18.5°C 89% Calm Calm -- 29.93 in1013.5 mb - 0.00 in0.0 mm 0.09 in2.3 mm
08:50 AM 68.8°F20.4°C 65.4°F18.6°C 89% Calm Calm -- 29.93 in1013.5 mb - 0.00 in0.0 mm 0.09 in2.3 mm
09:00 AM 69.0°F20.6°C 65.6°F18.7°C 89% Calm Calm -- 29.92 in1013.2 mb - 0.00 in0.0 mm 0.09 in2.3 mm
09:10 AM 69.1°F20.6°C 65.7°F18.7°C 89% Calm Calm -- 29.93 in1013.5 mb - 0.00 in0.0 mm 0.09 in2.3 mm
09:20 AM 69.3°F20.7°C 65.9°F18.8°C 89% Calm Calm -- 29.93 in1013.5 mb - 0.00 in0.0 mm 0.09 in2.3 mm
09:30 AM 69.5°F20.8°C 66.1°F18.9°C 89% Calm Calm 1.2 mph1.9 kmh 29.93 in1013.5 mb - 0.00 in0.0 mm 0.09 in2.3 mm
09:40 AM 69.2°F20.7°C 65.5°F18.6°C 88% Calm Calm 1.2 mph1.9 kmh 29.94 in1013.9 mb - 0.01 in0.3 mm 0.10 in2.5 mm
09:50 AM 69.0°F20.6°C 65.3°F18.5°C 88% Calm Calm -- 29.94 in1013.9 mb - 0.02 in0.5 mm 0.11 in2.8 mm
10:00 AM 69.2°F20.7°C 65.5°F18.6°C 88% Calm Calm -- 29.90 in1012.5 mb - 0.03 in0.8 mm 0.12 in3.0 mm
10:10 AM 69.7°F20.9°C 66.0°F18.9°C 88% Calm Calm -- 29.89 in1012.2 mb - 0.03 in0.8 mm 0.12 in3.0 mm
10:20 AM 69.7°F20.9°C 66.0°F18.9°C 88% Calm Calm -- 29.90 in1012.5 mb - 0.03 in0.8 mm 0.12 in3.0 mm
10:30 AM 70.0°F21.1°C 66.3°F19.1°C 88% Calm Calm -- 29.92 in1013.2 mb - 0.03 in0.8 mm 0.12 in3.0 mm
10:40 AM 70.1°F21.2°C 66.0°F18.9°C 87% Calm Calm -- 29.92 in1013.2 mb - 0.02 in0.5 mm 0.12 in3.0 mm
10:50 AM 70.0°F21.1°C 66.0°F18.9°C 87% Calm Calm -- 29.93 in1013.5 mb - 0.02 in0.5 mm 0.12 in3.0 mm
11:00 AM 70.2°F21.2°C 66.1°F18.9°C 87% Calm Calm -- 29.91 in1012.9 mb - 0.01 in0.3 mm 0.12 in3.0 mm
11:10 AM 70.5°F21.4°C 66.4°F19.1°C 87% Calm Calm -- 29.91 in1012.9 mb - 0.00 in0.0 mm 0.12 in3.0 mm
11:20 AM 70.6°F21.4°C 66.5°F19.2°C 87% Calm Calm -- 29.92 in1013.2 mb - 0.00 in0.0 mm 0.12 in3.0 mm
11:30 AM 71.1°F21.7°C 67.0°F19.4°C 87% Calm Calm -- 29.91 in1012.9 mb - 0.00 in0.0 mm 0.12 in3.0 mm
11:40 AM 71.4°F21.9°C 67.0°F19.4°C 86% Calm Calm -- 29.92 in1013.2 mb - 0.00 in0.0 mm 0.12 in3.0 mm
11:50 AM 71.5°F21.9°C 67.1°F19.5°C 86% Calm Calm -- 29.91 in1012.9 mb - 0.00 in0.0 mm 0.12 in3.0 mm
12:00 PM 71.4°F21.9°C 67.0°F19.4°C 86% Calm Calm -- 29.92 in1013.2 mb - 0.00 in0.0 mm 0.12 in3.0 mm
12:10 PM 71.2°F21.8°C 66.5°F19.2°C 85% Calm Calm -- 29.92 in1013.2 mb - 0.00 in0.0 mm 0.12 in3.0 mm
12:20 PM 71.4°F21.9°C 67.0°F19.4°C 86% Calm Calm -- 29.91 in1012.9 mb - 0.00 in0.0 mm 0.12 in3.0 mm
12:30 PM 71.5°F21.9°C 66.8°F19.3°C 85% Calm Calm -- 29.92 in1013.2 mb - 0.00 in0.0 mm 0.12 in3.0 mm
12:40 PM 71.4°F21.9°C 66.7°F19.3°C 85% Calm Calm -- 29.94 in1013.9 mb - 0.00 in0.0 mm 0.12 in3.0 mm
12:50 PM 71.3°F21.8°C 66.6°F19.2°C 85% Calm Calm -- 29.94 in1013.9 mb - 0.05 in1.3 mm 0.17 in4.3 mm
01:00 PM 71.0°F21.7°C 66.6°F19.2°C 86% Calm Calm -- 29.95 in1014.2 mb - 0.06 in1.5 mm 0.18 in4.6 mm
01:10 PM 70.9°F21.6°C 66.8°F19.3°C 87% Calm Calm -- 29.94 in1013.9 mb - 0.07 in1.8 mm 0.19 in4.8 mm
01:20 PM 71.2°F21.8°C 67.1°F19.5°C 87% Calm Calm -- 29.95 in1014.2 mb - 0.07 in1.8 mm 0.19 in4.8 mm
01:30 PM 71.2°F21.8°C 67.1°F19.5°C 87% Calm Calm -- 29.95 in1014.2 mb - 0.07 in1.8 mm 0.19 in4.8 mm
01:40 PM 71.1°F21.7°C 67.4°F19.7°C 88% Calm Calm -- 29.94 in1013.9 mb - 0.07 in1.8 mm 0.19 in4.8 mm
01:50 PM 71.2°F21.8°C 67.5°F19.7°C 88% Calm Calm -- 29.94 in1013.9 mb - 0.02 in0.5 mm 0.19 in4.8 mm
02:00 PM 71.0°F21.7°C 66.9°F19.4°C 87% Calm Calm -- 29.94 in1013.9 mb - 0.01 in0.3 mm 0.19 in4.8 mm
02:10 PM 70.8°F21.6°C 66.7°F19.3°C 87% Calm Calm -- 29.94 in1013.9 mb - 0.00 in0.0 mm 0.19 in4.8 mm
02:20 PM 70.7°F21.5°C 66.6°F19.2°C 87% Calm Calm -- 29.94 in1013.9 mb - 0.00 in0.0 mm 0.19 in4.8 mm
02:30 PM 70.6°F21.4°C 66.5°F19.2°C 87% Calm Calm -- 29.93 in1013.5 mb - 0.00 in0.0 mm 0.19 in4.8 mm
02:40 PM 70.8°F21.6°C 66.7°F19.3°C 87% Calm Calm -- 29.93 in1013.5 mb - 0.00 in0.0 mm 0.19 in4.8 mm
02:50 PM 71.1°F21.7°C 67.4°F19.7°C 88% Calm Calm -- 29.93 in1013.5 mb - 0.00 in0.0 mm 0.19 in4.8 mm
03:00 PM 71.5°F21.9°C 67.4°F19.7°C 87% Calm Calm -- 29.92 in1013.2 mb - 0.00 in0.0 mm 0.19 in4.8 mm
03:10 PM 71.7°F22.1°C 67.6°F19.8°C 87% Calm Calm -- 29.91 in1012.9 mb - 0.00 in0.0 mm 0.19 in4.8 mm
03:20 PM 71.6°F22.0°C 67.5°F19.7°C 87% Calm Calm -- 29.91 in1012.9 mb - 0.00 in0.0 mm 0.19 in4.8 mm
03:30 PM 71.3°F21.8°C 66.9°F19.4°C 86% Calm Calm -- 29.90 in1012.5 mb - 0.00 in0.0 mm 0.19 in4.8 mm
03:40 PM 71.3°F21.8°C 67.2°F19.6°C 87% Calm Calm -- 29.90 in1012.5 mb - 0.00 in0.0 mm 0.19 in4.8 mm
03:50 PM 71.3°F21.8°C 67.2°F19.6°C 87% Calm Calm -- 29.90 in1012.5 mb - 0.00 in0.0 mm 0.19 in4.8 mm
04:00 PM 71.4°F21.9°C 67.4°F19.7°C 87% Calm Calm -- 29.89 in1012.2 mb - 0.00 in0.0 mm 0.19 in4.8 mm
04:10 PM 71.5°F21.9°C 67.4°F19.7°C 87% Calm Calm -- 29.90 in1012.5 mb - 0.00 in0.0 mm 0.19 in4.8 mm
04:20 PM 71.2°F21.8°C 67.1°F19.5°C 87% Calm Calm -- 29.90 in1012.5 mb - 0.00 in0.0 mm 0.19 in4.8 mm
04:30 PM 71.3°F21.8°C 67.2°F19.6°C 87% Calm Calm -- 29.90 in1012.5 mb - 0.00 in0.0 mm 0.19 in4.8 mm
04:40 PM 71.3°F21.8°C 67.2°F19.6°C 87% Calm Calm -- 29.90 in1012.5 mb - 0.00 in0.0 mm 0.19 in4.8 mm
04:50 PM 71.5°F21.9°C 67.4°F19.7°C 87% Calm Calm -- 29.89 in1012.2 mb - 0.00 in0.0 mm 0.19 in4.8 mm
05:00 PM 71.7°F22.1°C 67.6°F19.8°C 87% Calm Calm -- 29.89 in1012.2 mb - 0.00 in0.0 mm 0.19 in4.8 mm
05:10 PM 71.7°F22.1°C 67.6°F19.8°C 87% Calm Calm -- 29.89 in1012.2 mb - 0.00 in0.0 mm 0.19 in4.8 mm
05:20 PM 71.8°F22.1°C 67.7°F19.8°C 87% Calm Calm -- 29.88 in1011.9 mb - 0.00 in0.0 mm 0.19 in4.8 mm
05:30 PM 71.6°F22.0°C 67.5°F19.7°C 87% Calm Calm -- 29.88 in1011.9 mb - 0.00 in0.0 mm 0.19 in4.8 mm
05:40 PM 71.5°F21.9°C 67.4°F19.7°C 87% Calm Calm -- 29.88 in1011.9 mb - 0.00 in0.0 mm 0.19 in4.8 mm
05:50 PM 71.5°F21.9°C 67.4°F19.7°C 87% Calm Calm -- 29.87 in1011.5 mb - 0.00 in0.0 mm 0.19 in4.8 mm
06:00 PM 71.5°F21.9°C 67.4°F19.7°C 87% Calm Calm -- 29.87 in1011.5 mb - 0.00 in0.0 mm 0.19 in4.8 mm
06:10 PM 71.3°F21.8°C 67.2°F19.6°C 87% Calm Calm -- 29.87 in1011.5 mb - 0.00 in0.0 mm 0.19 in4.8 mm
06:20 PM 71.3°F21.8°C 67.2°F19.6°C 87% Calm Calm -- 29.87 in1011.5 mb - 0.00 in0.0 mm 0.19 in4.8 mm
06:30 PM 71.3°F21.8°C 67.2°F19.6°C 87% Calm Calm -- 29.87 in1011.5 mb - 0.00 in0.0 mm 0.19 in4.8 mm
06:40 PM 71.2°F21.8°C 67.1°F19.5°C 87% Calm Calm -- 29.87 in1011.5 mb - 0.00 in0.0 mm 0.19 in4.8 mm
06:50 PM 71.1°F21.7°C 67.0°F19.4°C 87% Calm Calm -- 29.87 in1011.5 mb - 0.00 in0.0 mm 0.19 in4.8 mm
07:00 PM 71.0°F21.7°C 66.9°F19.4°C 87% Calm Calm -- 29.87 in1011.5 mb - 0.00 in0.0 mm 0.19 in4.8 mm
07:10 PM 70.8°F21.6°C 66.8°F19.3°C 87% Calm Calm -- 29.87 in1011.5 mb - 0.00 in0.0 mm 0.19 in4.8 mm
07:20 PM 70.8°F21.6°C 66.7°F19.3°C 87% Calm Calm -- 29.87 in1011.5 mb - 0.00 in0.0 mm 0.19 in4.8 mm
07:30 PM 70.8°F21.6°C 66.7°F19.3°C 87% Calm Calm -- 29.88 in1011.9 mb - 0.00 in0.0 mm 0.19 in4.8 mm
07:40 PM 70.9°F21.6°C 66.8°F19.3°C 87% Calm Calm -- 29.87 in1011.5 mb - 0.00 in0.0 mm 0.19 in4.8 mm
07:50 PM 70.9°F21.6°C 67.2°F19.6°C 88% Calm Calm -- 29.87 in1011.5 mb - 0.00 in0.0 mm 0.19 in4.8 mm
08:00 PM 70.9°F21.6°C 66.9°F19.4°C 87% Calm Calm -- 29.87 in1011.5 mb - 0.00 in0.0 mm 0.19 in4.8 mm
08:10 PM 70.7°F21.5°C 66.6°F19.2°C 87% Calm Calm -- 29.88 in1011.9 mb - 0.00 in0.0 mm 0.19 in4.8 mm
08:20 PM 70.6°F21.4°C 66.5°F19.2°C 87% Calm Calm -- 29.88 in1011.9 mb - 0.00 in0.0 mm 0.19 in4.8 mm
08:30 PM 70.5°F21.4°C 66.4°F19.1°C 87% Calm Calm -- 29.88 in1011.9 mb - 0.00 in0.0 mm 0.19 in4.8 mm
08:40 PM 70.3°F21.3°C 66.6°F19.2°C 88% Calm Calm -- 29.87 in1011.5 mb - 0.02 in0.5 mm 0.21 in5.3 mm
08:50 PM 70.2°F21.2°C 66.4°F19.1°C 88% Calm Calm -- 29.87 in1011.5 mb - 0.06 in1.5 mm 0.25 in6.4 mm
09:00 PM 70.0°F21.1°C 66.3°F19.1°C 88% Calm Calm -- 29.87 in1011.5 mb - 0.09 in2.3 mm 0.28 in7.1 mm
09:10 PM 69.8°F21.0°C 66.1°F18.9°C 88% Calm Calm -- 29.87 in1011.5 mb - 0.11 in2.8 mm 0.30 in7.6 mm
09:20 PM 69.7°F20.9°C 66.0°F18.9°C 88% Calm Calm -- 29.86 in1011.2 mb - 0.12 in3.0 mm 0.31 in7.9 mm
09:30 PM 69.7°F20.9°C 66.3°F19.1°C 89% Calm Calm -- 29.86 in1011.2 mb - 0.13 in3.3 mm 0.32 in8.1 mm
09:40 PM 69.6°F20.9°C 66.3°F19.1°C 89% Calm Calm -- 29.87 in1011.5 mb - 0.11 in2.8 mm 0.32 in8.1 mm
09:50 PM 69.5°F20.8°C 66.1°F18.9°C 89% Calm Calm -- 29.87 in1011.5 mb - 0.07 in1.8 mm 0.32 in8.1 mm
10:00 PM 69.3°F20.7°C 65.9°F18.8°C 89% Calm Calm -- 29.87 in1011.5 mb - 0.04 in1.0 mm 0.32 in8.1 mm
10:10 PM 69.2°F20.7°C 65.9°F18.8°C 89% Calm Calm -- 29.87 in1011.5 mb - 0.02 in0.5 mm 0.32 in8.1 mm
10:20 PM 69.1°F20.6°C 65.7°F18.7°C 89% Calm Calm -- 29.86 in1011.2 mb - 0.01 in0.3 mm 0.32 in8.1 mm
10:30 PM 69.0°F20.6°C 65.6°F18.7°C 89% Calm Calm -- 29.86 in1011.2 mb - 0.00 in0.0 mm 0.32 in8.1 mm
10:40 PM 69.0°F20.6°C 65.6°F18.7°C 89% Calm Calm -- 29.86 in1011.2 mb - 0.00 in0.0 mm 0.32 in8.1 mm
10:50 PM 68.9°F20.5°C 65.5°F18.6°C 89% Calm Calm -- 29.86 in1011.2 mb - 0.00 in0.0 mm 0.32 in8.1 mm
11:00 PM 68.8°F20.4°C 65.4°F18.6°C 89% Calm Calm -- 29.86 in1011.2 mb - 0.00 in0.0 mm 0.32 in8.1 mm
11:10 PM 69.0°F20.6°C 65.6°F18.7°C 89% Calm Calm -- 29.86 in1011.2 mb - 0.00 in0.0 mm 0.32 in8.1 mm
11:20 PM 69.0°F20.6°C 65.6°F18.7°C 89% Calm Calm -- 29.86 in1011.2 mb - 0.00 in0.0 mm 0.32 in8.1 mm
11:30 PM 69.0°F20.6°C 65.6°F18.7°C 89% Calm Calm -- 29.86 in1011.2 mb - 0.00 in0.0 mm 0.32 in8.1 mm
11:40 PM 69.0°F20.6°C 65.9°F18.8°C 90% Calm Calm -- 29.86 in1011.2 mb - 0.00 in0.0 mm 0.32 in8.1 mm
11:50 PM 68.9°F20.5°C 65.6°F18.7°C 89% Calm Calm -- 29.85 in1010.8 mb - 0.00 in0.0 mm 0.32 in8.1 mm